createdAt,value
2023-03-02T00:02:31.570Z,24.25
2023-03-02T00:07:34.729Z,26.10
2023-03-02T00:12:36.220Z,27.60
2023-03-02T00:17:37.786Z,31.08
2023-03-02T00:22:41.612Z,31.40
2023-03-02T00:27:43.834Z,26.67
2023-03-02T00:32:45.744Z,28.00
2023-03-02T00:37:48.102Z,34.17
2023-03-02T00:42:49.509Z,29.00
2023-03-02T00:47:50.913Z,30.73
2023-03-02T00:52:52.362Z,29.05
2023-03-02T00:57:56.654Z,27.60
2023-03-02T01:03:04.567Z,28.88
2023-03-02T01:08:06.342Z,22.83
2023-03-02T01:13:07.986Z,26.35
2023-03-02T01:18:11.062Z,30.10
2023-03-02T01:23:13.498Z,28.90
2023-03-02T01:28:14.910Z,32.47
2023-03-02T01:33:16.316Z,32.65
2023-03-02T01:38:17.839Z,38.20
2023-03-02T01:43:19.361Z,33.72
2023-03-02T01:48:25.933Z,28.85
2023-03-02T01:53:31.567Z,32.22
2023-03-02T01:58:37.261Z,29.33
2023-03-02T02:03:38.948Z,26.17
2023-03-02T02:08:40.442Z,29.67
2023-03-02T02:13:43.158Z,29.67
2023-03-02T02:18:44.679Z,30.42
2023-03-02T02:23:56.385Z,30.25
2023-03-02T02:29:02.223Z,32.75
2023-03-02T02:34:12.235Z,26.52
2023-03-02T02:39:21.118Z,25.52
2023-03-02T02:44:22.675Z,24.58
2023-03-02T02:49:35.140Z,26.42
2023-03-02T02:54:38.203Z,28.17
2023-03-02T02:59:53.972Z,31.17
2023-03-02T03:05:02.788Z,32.03
2023-03-02T03:10:25.266Z,32.22
2023-03-02T03:15:26.786Z,29.35
2023-03-02T03:20:29.110Z,31.35
2023-03-02T03:25:31.933Z,31.42
2023-03-02T03:30:34.459Z,24.50
2023-03-02T03:35:38.045Z,24.50
2023-03-02T03:40:39.874Z,23.23
2023-03-02T03:45:41.422Z,31.73
2023-03-02T03:50:43.087Z,30.40
2023-03-02T03:55:44.626Z,30.90
2023-03-02T04:00:47.583Z,31.75
2023-03-02T04:05:49.521Z,32.92
2023-03-02T04:10:51.019Z,31.75
2023-03-02T04:15:53.630Z,32.63
2023-03-02T04:20:55.388Z,29.80
2023-03-02T04:25:57.776Z,34.87
2023-03-02T04:30:59.750Z,33.95
2023-03-02T04:36:02.205Z,28.35
2023-03-02T04:41:04.181Z,27.33
2023-03-02T04:46:05.950Z,28.63
2023-03-02T04:51:15.871Z,31.67
2023-03-02T04:56:17.607Z,32.35
2023-03-02T05:01:20.138Z,30.60
2023-03-02T05:06:24.359Z,33.07
2023-03-02T05:11:26.653Z,28.65
2023-03-02T05:16:31.951Z,30.10
2023-03-02T05:21:34.042Z,30.10
2023-03-02T05:26:35.825Z,29.95
2023-03-02T05:31:42.998Z,33.35
2023-03-02T05:36:45.254Z,35.47
2023-03-02T05:41:46.717Z,32.35
2023-03-02T05:46:49.416Z,33.88
2023-03-02T05:51:50.854Z,34.33
2023-03-02T05:56:52.266Z,36.05
2023-03-02T06:01:58.587Z,35.47
2023-03-02T06:07:00.068Z,34.92
2023-03-02T06:12:01.490Z,35.53
2023-03-02T06:17:02.983Z,38.10
2023-03-02T06:22:04.504Z,39.10
2023-03-02T06:27:05.911Z,36.72
2023-03-02T06:32:10.417Z,35.80
2023-03-02T06:37:11.985Z,37.53
2023-03-02T06:42:13.390Z,34.22
2023-03-02T06:47:14.934Z,32.40
2023-03-02T06:52:16.715Z,36.85
2023-03-02T06:57:18.135Z,37.42
2023-03-02T07:02:19.586Z,36.45
2023-03-02T07:07:20.990Z,35.17
2023-03-02T07:12:22.441Z,41.35
2023-03-02T07:17:23.907Z,43.78
2023-03-02T07:22:25.430Z,39.20
2023-03-02T07:27:26.918Z,36.05
2023-03-02T07:32:28.680Z,36.08
2023-03-02T07:37:30.141Z,40.10
2023-03-02T07:42:31.579Z,37.70
2023-03-02T07:47:35.630Z,39.42
2023-03-02T07:52:37.037Z,36.78
2023-03-02T07:57:38.451Z,39.50
2023-03-02T08:02:41.461Z,38.47
2023-03-02T08:07:43.888Z,36.50
2023-03-02T08:12:45.430Z,39.85
2023-03-02T08:17:46.875Z,35.88
2023-03-02T08:22:48.386Z,38.08
2023-03-02T08:27:49.799Z,37.72
2023-03-02T08:32:51.795Z,44.13
2023-03-02T08:37:54.057Z,39.30
2023-03-02T08:42:57.322Z,40.88
2023-03-02T08:53:00.150Z,40.80
2023-03-02T08:58:01.630Z,35.38
2023-03-02T09:03:03.359Z,36.35
2023-03-02T09:08:05.130Z,38.22
2023-03-02T09:13:08.531Z,40.10
2023-03-02T09:18:10.323Z,38.20
2023-03-02T09:23:13.515Z,34.35
2023-03-02T09:28:15.934Z,36.53
2023-03-02T09:33:17.410Z,33.40
2023-03-02T09:38:19.283Z,33.70
2023-03-02T09:43:42.210Z,30.65
2023-03-02T09:49:02.077Z,32.70
2023-03-02T09:54:09.823Z,37.20
2023-03-02T09:59:24.383Z,33.97
2023-03-02T10:04:28.752Z,30.65
2023-03-02T10:09:30.322Z,28.15
2023-03-02T10:14:38.980Z,27.08
2023-03-02T10:19:56.307Z,26.55
2023-03-02T10:25:23.950Z,28.38
2023-03-02T10:30:33.732Z,26.60
2023-03-02T10:35:38.070Z,24.75
2023-03-02T10:40:43.241Z,26.17
2023-03-02T10:45:45.961Z,24.65
2023-03-02T10:50:54.182Z,24.23
2023-03-02T10:55:55.703Z,23.40
2023-03-02T11:01:05.866Z,22.70
2023-03-02T11:06:18.083Z,22.42
2023-03-02T11:11:24.737Z,20.15
2023-03-02T11:16:31.479Z,23.35
2023-03-02T11:21:58.143Z,22.45
2023-03-02T11:27:27.641Z,17.45
2023-03-02T11:32:45.698Z,14.18
2023-03-02T11:37:53.083Z,24.02
2023-03-02T11:42:57.229Z,20.00
2023-03-02T11:48:31.279Z,20.45
2023-03-02T11:53:46.113Z,18.67
2023-03-02T11:58:55.548Z,13.05
2023-03-02T12:04:11.232Z,14.73
2023-03-02T12:09:30.626Z,13.95
2023-03-02T12:14:38.357Z,16.38
2023-03-02T12:19:44.978Z,14.93
2023-03-02T12:24:46.492Z,14.75
2023-03-02T12:30:08.032Z,15.68
2023-03-02T12:35:12.699Z,21.30
2023-03-02T12:40:24.150Z,15.95
2023-03-02T12:45:47.592Z,12.88
2023-03-02T12:50:51.034Z,15.60
2023-03-02T12:55:52.541Z,14.75
2023-03-02T13:01:01.761Z,15.35
2023-03-02T13:06:15.856Z,14.57
2023-03-02T13:11:25.738Z,13.52
2023-03-02T13:16:33.434Z,16.73
2023-03-02T13:21:39.200Z,15.10
2023-03-02T13:26:40.752Z,12.77
2023-03-02T13:31:42.504Z,16.02
2023-03-02T13:36:43.999Z,15.70
2023-03-02T13:41:57.511Z,17.98
2023-03-02T13:46:59.526Z,16.75
2023-03-02T13:52:18.117Z,17.47
2023-03-02T13:57:30.774Z,18.65
2023-03-02T14:02:32.379Z,18.02
2023-03-02T14:07:33.853Z,22.35
2023-03-02T14:12:35.491Z,20.55
2023-03-02T14:17:36.986Z,20.15
2023-03-02T14:22:38.876Z,21.05
2023-03-02T14:27:41.254Z,22.00
2023-03-02T14:32:42.703Z,21.88
2023-03-02T14:37:49.224Z,21.98
2023-03-02T14:42:51.757Z,19.77
2023-03-02T14:47:53.344Z,22.85
2023-03-02T14:52:56.583Z,24.42
2023-03-02T14:58:10.464Z,21.73
2023-03-02T15:03:19.176Z,22.42
2023-03-02T15:08:21.924Z,21.38
2023-03-02T15:13:23.378Z,18.52
2023-03-02T15:18:24.810Z,19.63
2023-03-02T15:23:26.258Z,21.70
2023-03-02T15:28:28.035Z,18.50
2023-03-02T15:33:29.435Z,19.90
2023-03-02T15:38:30.904Z,22.85
2023-03-02T15:43:33.123Z,15.93
2023-03-02T15:48:35.616Z,18.90
2023-03-02T15:53:38.641Z,17.20
2023-03-02T16:03:43.117Z,15.40
2023-03-02T16:08:45.033Z,18.38
2023-03-02T16:13:46.646Z,16.52
2023-03-02T16:18:55.112Z,19.58
2023-03-02T16:24:03.158Z,18.50
2023-03-02T16:29:07.955Z,20.48
2023-03-02T16:34:09.971Z,18.60
2023-03-02T16:39:12.352Z,20.92
2023-03-02T16:44:14.591Z,17.70
2023-03-02T16:49:16.058Z,19.07
2023-03-02T16:54:17.635Z,20.77
2023-03-02T16:59:19.080Z,24.40
2023-03-02T17:04:21.885Z,23.40
2023-03-02T17:09:23.353Z,47.10
2023-03-02T17:14:25.019Z,69.43
2023-03-02T17:19:26.913Z,80.50
2023-03-02T17:24:28.890Z,61.03
2023-03-02T17:29:30.703Z,36.17
2023-03-02T17:34:32.121Z,35.15
2023-03-02T17:39:33.511Z,30.73
2023-03-02T17:44:38.378Z,26.17
2023-03-02T17:49:40.998Z,27.35
2023-03-02T17:54:43.518Z,33.95
2023-03-02T17:59:46.145Z,31.65
2023-03-02T18:04:47.656Z,27.25
2023-03-02T18:09:49.066Z,27.40
2023-03-02T18:14:50.589Z,31.17
2023-03-02T18:19:52.210Z,27.65
2023-03-02T18:24:53.675Z,26.60
2023-03-02T18:29:55.150Z,25.98
2023-03-02T18:34:56.591Z,26.25
2023-03-02T18:39:58.013Z,27.40
2023-03-02T18:45:00.163Z,27.23
2023-03-02T18:50:02.443Z,23.25
2023-03-02T18:55:04.361Z,26.43
2023-03-02T19:00:09.590Z,24.90
2023-03-02T19:05:11.524Z,22.98
2023-03-02T19:10:14.818Z,24.42
2023-03-02T19:15:16.484Z,23.63
2023-03-02T19:20:24.659Z,28.70
2023-03-02T19:25:26.271Z,27.58
2023-03-02T19:30:27.949Z,32.13
2023-03-02T19:35:30.422Z,30.63
2023-03-02T19:40:32.052Z,32.90
2023-03-02T19:45:35.534Z,31.58
2023-03-02T19:50:36.989Z,36.40
2023-03-02T19:55:39.518Z,34.30
2023-03-02T20:00:41.030Z,34.00
2023-03-02T20:05:42.514Z,32.30
2023-03-02T20:10:47.030Z,33.25
2023-03-02T20:15:48.734Z,31.15
2023-03-02T20:20:50.273Z,28.52
2023-03-02T20:25:52.022Z,32.53
2023-03-02T20:30:59.713Z,33.60
2023-03-02T20:36:03.035Z,33.47
2023-03-02T20:41:06.046Z,34.05
2023-03-02T20:51:09.715Z,35.05
2023-03-02T20:56:12.595Z,34.42
2023-03-02T21:01:15.962Z,32.92
2023-03-02T21:06:17.803Z,33.35
2023-03-02T21:11:20.704Z,32.10
2023-03-02T21:16:28.246Z,33.45
2023-03-02T21:21:40.801Z,37.65
2023-03-02T21:31:46.085Z,31.57
2023-03-02T21:36:50.595Z,37.25
2023-03-02T21:41:53.000Z,36.33
2023-03-02T21:46:55.000Z,52.07
2023-03-02T21:51:56.957Z,39.97
2023-03-02T21:56:58.636Z,33.05
2023-03-02T22:02:01.335Z,28.10
2023-03-02T22:07:03.105Z,34.70
2023-03-02T22:12:13.549Z,33.33
2023-03-02T22:17:24.575Z,43.10
2023-03-02T22:22:30.316Z,40.47
2023-03-02T22:27:32.020Z,36.97
2023-03-02T22:32:38.265Z,41.95
2023-03-02T22:37:39.755Z,45.55
2023-03-02T22:42:41.161Z,41.38
2023-03-02T22:47:44.202Z,36.58
2023-03-02T22:52:45.698Z,40.50
2023-03-02T22:57:47.191Z,40.97
2023-03-02T23:02:48.709Z,40.00
2023-03-02T23:07:50.572Z,41.88
2023-03-02T23:12:51.991Z,50.50
2023-03-02T23:17:53.418Z,48.25
2023-03-02T23:22:56.117Z,86.53
2023-03-02T23:27:57.598Z,107.22
2023-03-02T23:32:59.039Z,108.85
2023-03-02T23:38:01.381Z,393.77
2023-03-02T23:43:02.805Z,296.93
2023-03-02T23:48:04.768Z,366.48
2023-03-02T23:53:06.170Z,348.98
2023-03-02T23:58:07.667Z,367.30
